createdAt,value
2023-02-09T00:01:46.803Z,29.93
2023-02-09T00:04:34.915Z,31.13
2023-02-09T00:07:22.283Z,31.93
2023-02-09T00:10:09.866Z,28.00
2023-02-09T00:13:15.825Z,31.10
2023-02-09T00:16:03.723Z,28.67
2023-02-09T00:18:51.071Z,29.83
2023-02-09T00:21:38.685Z,32.07
2023-02-09T00:24:26.050Z,27.70
2023-02-09T00:27:13.404Z,30.10
2023-02-09T00:30:00.808Z,30.07
2023-02-09T00:32:48.222Z,28.97
2023-02-09T00:35:35.648Z,30.37
2023-02-09T00:38:23.060Z,28.77
2023-02-09T00:41:10.975Z,29.97
2023-02-09T00:43:58.638Z,31.60
2023-02-09T00:46:46.007Z,33.23
2023-02-09T00:49:33.481Z,31.33
2023-02-09T00:52:20.842Z,29.13
2023-02-09T00:55:08.291Z,28.43
2023-02-09T00:57:55.691Z,31.63
2023-02-09T01:00:43.243Z,32.57
2023-02-09T01:03:30.789Z,32.10
2023-02-09T01:06:18.226Z,31.70
2023-02-09T01:09:05.631Z,30.23
2023-02-09T01:11:53.076Z,30.03
2023-02-09T01:14:40.477Z,32.33
2023-02-09T01:17:28.122Z,33.43
2023-02-09T01:20:15.582Z,32.57
2023-02-09T01:23:02.937Z,32.37
2023-02-09T01:25:50.302Z,32.10
2023-02-09T01:28:38.404Z,31.40
2023-02-09T01:31:25.860Z,32.33
2023-02-09T01:34:14.494Z,33.43
2023-02-09T01:37:01.872Z,31.40
2023-02-09T01:39:49.310Z,34.20
2023-02-09T01:42:36.705Z,34.50
2023-02-09T01:45:24.128Z,31.67
2023-02-09T01:48:11.824Z,32.27
2023-02-09T01:51:00.086Z,32.47
2023-02-09T01:53:48.148Z,32.23
2023-02-09T01:56:37.866Z,30.97
2023-02-09T01:59:25.274Z,33.00
2023-02-09T02:02:13.275Z,31.27
2023-02-09T02:05:00.784Z,34.93
2023-02-09T02:07:55.212Z,34.17
2023-02-09T02:10:42.785Z,35.37
2023-02-09T02:13:30.547Z,35.27
2023-02-09T02:16:29.266Z,33.17
2023-02-09T02:19:16.591Z,32.57
2023-02-09T02:22:26.603Z,32.57
2023-02-09T02:25:22.893Z,31.37
2023-02-09T02:28:22.434Z,31.30
2023-02-09T02:31:28.597Z,31.40
2023-02-09T02:34:16.054Z,31.87
2023-02-09T02:37:19.873Z,31.47
2023-02-09T02:40:10.338Z,30.63
2023-02-09T02:43:06.351Z,30.03
2023-02-09T02:45:53.691Z,30.23
2023-02-09T02:48:43.562Z,30.17
2023-02-09T02:51:33.657Z,30.37
2023-02-09T02:54:27.222Z,30.13
2023-02-09T02:57:17.452Z,29.77
2023-02-09T03:00:10.944Z,29.90
2023-02-09T03:03:01.078Z,29.93
2023-02-09T03:05:49.721Z,29.17
2023-02-09T03:08:56.460Z,30.87
2023-02-09T03:11:45.142Z,29.17
2023-02-09T03:14:40.323Z,31.27
2023-02-09T03:17:37.336Z,30.43
2023-02-09T03:20:31.551Z,30.60
2023-02-09T03:23:33.776Z,31.77
2023-02-09T03:26:22.750Z,29.10
2023-02-09T03:29:10.654Z,27.73
2023-02-09T03:31:58.294Z,30.20
2023-02-09T03:34:46.110Z,29.00
2023-02-09T03:37:33.476Z,29.33
2023-02-09T03:40:20.951Z,28.77
2023-02-09T03:43:08.744Z,29.17
2023-02-09T03:45:56.073Z,27.93
2023-02-09T03:48:43.499Z,29.70
2023-02-09T03:51:30.882Z,28.83
2023-02-09T03:54:18.244Z,28.87
2023-02-09T03:57:06.186Z,29.60
2023-02-09T03:59:53.563Z,29.60
2023-02-09T04:02:41.048Z,30.90
2023-02-09T04:05:28.424Z,28.97
2023-02-09T04:08:15.863Z,27.57
2023-02-09T04:11:03.270Z,28.43
2023-02-09T04:13:50.691Z,28.07
2023-02-09T04:16:38.651Z,28.50
2023-02-09T04:19:26.106Z,27.43
2023-02-09T04:22:13.480Z,27.73
2023-02-09T04:25:00.842Z,29.40
2023-02-09T04:27:48.238Z,28.07
2023-02-09T04:30:35.717Z,26.70
2023-02-09T04:33:23.949Z,27.73
2023-02-09T04:36:11.722Z,27.50
2023-02-09T04:38:59.117Z,27.70
2023-02-09T04:41:46.462Z,26.87
2023-02-09T04:44:33.850Z,26.80
2023-02-09T04:47:21.223Z,27.37
2023-02-09T04:50:08.852Z,25.77
2023-02-09T04:52:56.234Z,27.60
2023-02-09T04:55:44.557Z,26.83
2023-02-09T04:58:50.673Z,28.27
2023-02-09T05:01:38.033Z,35.55
2023-02-09T05:04:25.550Z,27.07
2023-02-09T05:07:12.996Z,27.80
2023-02-09T05:10:00.327Z,27.00
2023-02-09T05:12:47.771Z,25.87
2023-02-09T05:15:35.277Z,25.60
2023-02-09T05:18:22.993Z,26.13
2023-02-09T05:21:10.480Z,26.73
2023-02-09T05:23:57.901Z,27.13
2023-02-09T05:26:45.323Z,26.37
2023-02-09T05:29:32.748Z,29.37
2023-02-09T05:32:20.484Z,26.17
2023-02-09T05:35:08.560Z,26.67
2023-02-09T05:37:55.959Z,26.60
2023-02-09T05:40:45.142Z,27.53
2023-02-09T05:43:32.809Z,22.30
2023-02-09T05:46:20.179Z,23.50
2023-02-09T05:49:07.581Z,25.63
2023-02-09T05:51:55.150Z,24.80
2023-02-09T05:54:42.615Z,24.87
2023-02-09T05:57:30.032Z,24.27
2023-02-09T06:00:17.514Z,22.73
2023-02-09T06:03:05.044Z,22.97
2023-02-09T06:05:52.493Z,35.57
2023-02-09T06:08:39.914Z,28.87
2023-02-09T06:11:27.374Z,25.93
2023-02-09T06:14:14.795Z,24.10
2023-02-09T06:17:02.191Z,22.53
2023-02-09T06:19:49.578Z,21.93
2023-02-09T06:22:36.968Z,22.23
2023-02-09T06:25:24.368Z,22.57
2023-02-09T06:28:11.909Z,19.43
2023-02-09T06:30:59.384Z,20.43
2023-02-09T06:33:46.842Z,20.53
2023-02-09T06:36:34.594Z,20.43
2023-02-09T06:39:22.013Z,20.33
2023-02-09T06:42:09.382Z,19.93
2023-02-09T06:44:59.401Z,19.20
2023-02-09T06:47:48.017Z,19.27
2023-02-09T06:50:36.342Z,18.30
2023-02-09T06:53:23.887Z,19.97
2023-02-09T06:56:11.792Z,24.30
2023-02-09T06:58:59.164Z,24.53
2023-02-09T07:01:46.568Z,19.43
2023-02-09T07:04:34.041Z,19.60
2023-02-09T07:07:21.478Z,18.30
2023-02-09T07:10:09.712Z,19.20
2023-02-09T07:13:00.186Z,19.20
2023-02-09T07:15:54.890Z,18.63
2023-02-09T07:18:42.511Z,19.73
2023-02-09T07:21:29.966Z,16.57
2023-02-09T07:24:17.437Z,17.23
2023-02-09T07:27:05.528Z,16.73
2023-02-09T07:29:52.857Z,16.97
2023-02-09T07:32:40.376Z,16.47
2023-02-09T07:35:27.792Z,16.70
2023-02-09T07:38:15.465Z,16.73
2023-02-09T07:41:03.934Z,15.70
2023-02-09T07:43:52.312Z,16.33
2023-02-09T07:46:39.820Z,15.50
2023-02-09T07:49:27.243Z,16.63
2023-02-09T07:52:14.662Z,16.23
2023-02-09T07:55:02.054Z,15.10
2023-02-09T07:57:49.509Z,14.53
2023-02-09T08:00:36.890Z,15.73
2023-02-09T08:03:24.971Z,15.77
2023-02-09T08:06:19.538Z,16.03
2023-02-09T08:09:07.771Z,18.40
2023-02-09T08:12:03.561Z,21.70
2023-02-09T08:14:51.191Z,15.80
2023-02-09T08:17:38.804Z,20.53
2023-02-09T08:20:28.301Z,20.83
2023-02-09T08:23:18.646Z,18.77
2023-02-09T08:26:08.354Z,16.93
2023-02-09T08:28:56.748Z,16.93
2023-02-09T08:31:45.122Z,14.13
2023-02-09T08:34:32.526Z,14.30
2023-02-09T08:37:19.907Z,12.70
2023-02-09T08:40:07.465Z,13.00
2023-02-09T08:42:54.943Z,12.53
2023-02-09T08:45:42.763Z,12.27
2023-02-09T08:48:35.852Z,13.00
2023-02-09T08:51:23.424Z,12.03
2023-02-09T08:54:10.916Z,10.07
2023-02-09T08:56:58.595Z,11.03
2023-02-09T08:59:46.440Z,11.67
2023-02-09T09:02:34.761Z,11.17
2023-02-09T09:05:22.953Z,11.77
2023-02-09T09:08:10.543Z,10.87
2023-02-09T09:10:58.015Z,10.80
2023-02-09T09:13:45.399Z,11.17
2023-02-09T09:16:32.879Z,11.57
2023-02-09T09:19:21.004Z,11.23
2023-02-09T09:22:08.985Z,10.00
2023-02-09T09:24:56.717Z,10.03
2023-02-09T09:27:45.260Z,10.90
2023-02-09T09:30:33.236Z,10.63
2023-02-09T09:33:21.027Z,10.87
2023-02-09T09:36:09.499Z,10.47
2023-02-09T09:38:57.966Z,10.47
2023-02-09T09:41:46.842Z,9.67
2023-02-09T09:44:37.393Z,9.83
2023-02-09T09:47:35.658Z,9.87
2023-02-09T09:50:26.413Z,8.70
2023-02-09T09:53:26.082Z,9.07
2023-02-09T09:56:14.043Z,9.30
2023-02-09T09:59:02.300Z,9.67
2023-02-09T10:01:51.087Z,10.60
2023-02-09T10:04:38.576Z,9.27
2023-02-09T10:07:31.400Z,9.83
2023-02-09T10:10:27.908Z,8.90
2023-02-09T10:13:24.533Z,9.10
2023-02-09T10:16:16.623Z,7.63
2023-02-09T10:19:26.251Z,9.77
2023-02-09T10:22:13.749Z,8.93
2023-02-09T10:25:02.586Z,8.53
2023-02-09T10:27:50.044Z,8.70
2023-02-09T10:30:38.258Z,8.50
2023-02-09T10:33:27.185Z,8.67
2023-02-09T10:36:24.130Z,9.50
2023-02-09T10:39:31.876Z,8.47
2023-02-09T10:42:19.352Z,8.97
2023-02-09T10:45:26.226Z,8.60
2023-02-09T10:48:13.642Z,8.57
2023-02-09T10:51:06.645Z,9.03
2023-02-09T10:54:00.371Z,8.77
2023-02-09T10:56:50.367Z,8.20
2023-02-09T10:59:38.383Z,8.73
2023-02-09T11:02:49.022Z,8.47
2023-02-09T11:05:36.484Z,7.93
2023-02-09T11:08:25.225Z,8.00
2023-02-09T11:11:23.575Z,8.10
2023-02-09T11:14:13.532Z,7.87
2023-02-09T11:17:11.650Z,7.73
2023-02-09T11:20:18.686Z,9.10
2023-02-09T11:23:09.534Z,8.20
2023-02-09T11:25:57.807Z,8.13
2023-02-09T11:28:59.242Z,8.40
2023-02-09T11:31:47.119Z,7.80
2023-02-09T11:34:54.276Z,8.40
2023-02-09T11:38:02.232Z,8.10
2023-02-09T11:40:54.363Z,9.87
2023-02-09T11:43:42.432Z,8.63
2023-02-09T11:46:31.642Z,8.13
2023-02-09T11:49:21.941Z,7.47
2023-02-09T11:52:10.365Z,8.40
2023-02-09T11:55:00.970Z,8.47
2023-02-09T11:57:51.408Z,9.37
2023-02-09T12:00:53.495Z,9.17
2023-02-09T12:03:57.484Z,8.60
2023-02-09T12:06:48.069Z,8.20
2023-02-09T12:09:38.647Z,9.17
2023-02-09T12:12:29.684Z,9.37
2023-02-09T12:15:22.967Z,8.50
2023-02-09T12:18:16.908Z,8.50
2023-02-09T12:21:07.075Z,8.83
2023-02-09T12:23:54.647Z,8.77
2023-02-09T12:26:44.484Z,8.33
2023-02-09T12:29:39.512Z,9.20
2023-02-09T12:32:30.694Z,9.10
2023-02-09T12:35:29.255Z,8.80
2023-02-09T12:38:20.475Z,9.00
2023-02-09T12:41:08.558Z,8.83
2023-02-09T12:44:11.355Z,8.80
2023-02-09T12:46:58.777Z,8.47
2023-02-09T12:49:46.197Z,8.37
2023-02-09T12:52:35.005Z,8.97
2023-02-09T12:55:23.870Z,8.57
2023-02-09T12:58:30.463Z,9.20
2023-02-09T13:01:18.031Z,8.70
2023-02-09T13:04:07.812Z,8.30
2023-02-09T13:06:57.323Z,8.80
2023-02-09T13:09:45.586Z,8.73
2023-02-09T13:12:39.708Z,8.77
2023-02-09T13:15:28.715Z,9.07
2023-02-09T13:18:21.301Z,11.55
2023-02-09T13:21:14.450Z,10.43
2023-02-09T13:24:13.780Z,8.90
2023-02-09T13:27:01.271Z,8.83
2023-02-09T13:29:50.124Z,11.97
2023-02-09T13:32:56.525Z,10.77
2023-02-09T13:35:56.255Z,11.33
2023-02-09T13:38:43.864Z,11.10
2023-02-09T13:41:40.877Z,9.80
2023-02-09T13:44:29.196Z,9.83
2023-02-09T13:47:16.671Z,9.67
2023-02-09T13:50:30.470Z,9.37
2023-02-09T13:53:18.601Z,9.77
2023-02-09T13:56:09.287Z,8.63
2023-02-09T13:58:56.988Z,9.33
2023-02-09T14:01:46.312Z,9.90
2023-02-09T14:04:34.573Z,9.00
2023-02-09T14:07:23.496Z,8.83
2023-02-09T14:10:16.896Z,8.93
2023-02-09T14:13:07.393Z,9.27
2023-02-09T14:16:09.778Z,9.40
2023-02-09T14:18:58.755Z,8.80
2023-02-09T14:21:48.449Z,8.40
2023-02-09T14:24:44.036Z,9.83
2023-02-09T14:27:36.180Z,9.07
2023-02-09T14:30:25.273Z,9.47
2023-02-09T14:33:24.936Z,9.37
2023-02-09T14:36:21.972Z,8.97
2023-02-09T14:39:17.296Z,8.77
2023-02-09T14:42:11.049Z,8.27
2023-02-09T14:44:59.727Z,8.40
2023-02-09T14:47:47.174Z,8.77
2023-02-09T14:50:34.606Z,9.70
2023-02-09T14:53:22.795Z,9.10
2023-02-09T14:56:30.467Z,8.70
2023-02-09T14:59:18.295Z,9.10
2023-02-09T15:02:19.237Z,9.00
2023-02-09T15:05:07.193Z,10.00
2023-02-09T15:07:56.602Z,8.53
2023-02-09T15:10:45.872Z,10.60
2023-02-09T15:13:33.313Z,9.30
2023-02-09T15:16:20.965Z,9.97
2023-02-09T15:19:13.747Z,9.57
2023-02-09T15:22:07.430Z,9.50
2023-02-09T15:24:56.289Z,10.27
2023-02-09T15:27:52.368Z,10.43
2023-02-09T15:30:40.046Z,12.50
2023-02-09T15:33:28.667Z,11.73
2023-02-09T15:36:19.739Z,11.10
2023-02-09T15:39:08.025Z,9.93
2023-02-09T15:42:14.274Z,9.83
2023-02-09T15:45:41.049Z,10.20
2023-02-09T15:48:28.549Z,10.60
2023-02-09T15:51:16.367Z,10.30
2023-02-09T15:54:06.039Z,9.67
2023-02-09T15:56:54.875Z,11.10
2023-02-09T15:59:42.689Z,11.07
2023-02-09T16:02:30.735Z,10.10
2023-02-09T16:05:18.181Z,10.57
2023-02-09T16:08:05.651Z,11.02
2023-02-09T16:10:53.658Z,9.40
2023-02-09T16:13:41.046Z,10.17
2023-02-09T16:16:28.781Z,10.10
2023-02-09T16:19:16.933Z,10.97
2023-02-09T16:22:06.867Z,10.87
2023-02-09T16:24:54.323Z,12.73
2023-02-09T16:27:41.726Z,14.57
2023-02-09T16:30:30.052Z,11.27
2023-02-09T16:33:18.199Z,12.00
2023-02-09T16:36:08.737Z,11.57
2023-02-09T16:38:56.142Z,12.17
2023-02-09T16:41:53.545Z,11.77
2023-02-09T16:44:41.471Z,11.67
2023-02-09T16:47:29.075Z,10.60
2023-02-09T16:50:16.451Z,11.13
2023-02-09T16:53:14.925Z,10.97
2023-02-09T16:56:04.755Z,11.00
2023-02-09T16:58:52.705Z,10.80
2023-02-09T17:01:40.222Z,12.80
2023-02-09T17:04:27.603Z,10.77
2023-02-09T17:07:15.008Z,11.37
2023-02-09T17:10:02.467Z,10.53
2023-02-09T17:12:52.007Z,11.38
2023-02-09T17:15:45.791Z,11.10
2023-02-09T17:18:39.626Z,10.13
2023-02-09T17:21:31.505Z,11.00
2023-02-09T17:24:19.010Z,10.53
2023-02-09T17:27:06.654Z,11.07
2023-02-09T17:29:54.018Z,11.53
2023-02-09T17:32:41.505Z,12.07
2023-02-09T17:35:58.108Z,11.87
2023-02-09T17:38:40.819Z,11.37
2023-02-09T17:41:44.785Z,11.07
2023-02-09T17:44:45.492Z,11.43
2023-02-09T17:47:33.944Z,13.03
2023-02-09T17:50:22.276Z,11.13
2023-02-09T17:53:18.095Z,13.63
2023-02-09T17:56:05.733Z,12.33
2023-02-09T17:58:53.267Z,13.70
2023-02-09T18:01:45.633Z,11.87
2023-02-09T18:04:33.715Z,12.67
2023-02-09T18:07:21.145Z,12.13
2023-02-09T18:10:08.679Z,12.33
2023-02-09T18:12:57.385Z,12.63
2023-02-09T18:15:45.244Z,12.57
2023-02-09T18:18:33.176Z,12.20
2023-02-09T18:21:20.541Z,12.57
2023-02-09T18:24:08.075Z,13.10
2023-02-09T18:26:55.839Z,13.60
2023-02-09T18:29:43.275Z,13.20
2023-02-09T18:32:30.685Z,13.43
2023-02-09T18:35:31.003Z,12.77
2023-02-09T18:38:18.491Z,13.10
2023-02-09T18:41:05.958Z,14.33
2023-02-09T18:43:54.426Z,13.00
2023-02-09T18:46:43.189Z,14.77
2023-02-09T18:49:30.834Z,14.37
2023-02-09T18:52:18.874Z,13.50
2023-02-09T18:55:06.505Z,13.87
2023-02-09T18:57:53.990Z,13.80
2023-02-09T19:00:41.363Z,14.97
2023-02-09T19:03:28.843Z,15.10
2023-02-09T19:06:16.270Z,15.47
2023-02-09T19:09:03.704Z,14.93
2023-02-09T19:11:51.195Z,16.33
2023-02-09T19:14:40.894Z,15.30
2023-02-09T19:17:29.237Z,14.93
2023-02-09T19:20:18.492Z,15.23
2023-02-09T19:23:07.577Z,15.50
2023-02-09T19:26:02.601Z,15.20
2023-02-09T19:28:50.283Z,15.33
2023-02-09T19:31:37.831Z,16.07
2023-02-09T19:34:25.220Z,16.13
2023-02-09T19:37:13.592Z,16.40
2023-02-09T19:40:04.856Z,18.00
2023-02-09T19:42:52.257Z,16.50
2023-02-09T19:45:39.674Z,16.60
2023-02-09T19:48:27.062Z,17.63
2023-02-09T19:51:14.526Z,17.53
2023-02-09T19:54:01.869Z,17.13
2023-02-09T19:56:49.392Z,16.73
2023-02-09T19:59:38.432Z,16.67
2023-02-09T20:02:25.854Z,16.87
2023-02-09T20:05:13.388Z,16.60
2023-02-09T20:08:00.823Z,15.60
2023-02-09T20:10:48.618Z,17.37
2023-02-09T20:13:36.422Z,16.37
2023-02-09T20:16:25.183Z,17.53
2023-02-09T20:19:12.972Z,19.37
2023-02-09T20:22:00.381Z,17.60
2023-02-09T20:24:47.791Z,17.67
2023-02-09T20:27:35.195Z,17.03
2023-02-09T20:30:22.577Z,18.80
2023-02-09T20:33:10.212Z,17.30
2023-02-09T20:35:57.592Z,18.77
2023-02-09T20:38:45.344Z,17.40
2023-02-09T20:41:32.757Z,18.70
2023-02-09T20:44:38.774Z,18.13
2023-02-09T20:47:26.424Z,18.10
2023-02-09T20:50:16.611Z,19.00
2023-02-09T20:53:04.065Z,17.63
2023-02-09T20:55:51.500Z,16.90
2023-02-09T20:58:38.923Z,17.43
2023-02-09T21:01:26.906Z,18.57
2023-02-09T21:04:15.484Z,18.47
2023-02-09T21:07:04.126Z,20.67
2023-02-09T21:09:53.980Z,18.87
2023-02-09T21:12:41.376Z,18.67
2023-02-09T21:15:28.758Z,18.53
2023-02-09T21:18:18.065Z,19.40
2023-02-09T21:21:06.203Z,20.17
2023-02-09T21:23:53.994Z,18.23
2023-02-09T21:26:42.697Z,19.57
2023-02-09T21:29:30.164Z,18.53
2023-02-09T21:32:18.252Z,18.10
2023-02-09T21:35:10.474Z,17.43
2023-02-09T21:37:58.029Z,19.43
2023-02-09T21:40:45.717Z,20.17
2023-02-09T21:43:33.815Z,18.90
2023-02-09T21:46:21.228Z,19.03
2023-02-09T21:49:08.755Z,19.80
2023-02-09T21:51:56.496Z,19.57
2023-02-09T21:54:43.835Z,19.33
2023-02-09T21:57:31.374Z,19.23
2023-02-09T22:00:19.006Z,19.60
2023-02-09T22:03:06.408Z,19.90
2023-02-09T22:06:00.558Z,20.00
2023-02-09T22:08:47.949Z,19.03
2023-02-09T22:11:35.352Z,20.40
2023-02-09T22:14:23.012Z,21.30
2023-02-09T22:17:10.376Z,18.87
2023-02-09T22:19:57.746Z,18.77
2023-02-09T22:22:46.043Z,18.57
2023-02-09T22:25:33.861Z,18.97
2023-02-09T22:28:21.301Z,19.00
2023-02-09T22:31:10.148Z,20.00
2023-02-09T22:33:58.458Z,20.10
2023-02-09T22:36:46.000Z,19.50
2023-02-09T22:39:33.471Z,21.50
2023-02-09T22:42:20.877Z,21.30
2023-02-09T22:45:08.609Z,19.23
2023-02-09T22:47:56.067Z,19.87
2023-02-09T22:50:43.431Z,21.10
2023-02-09T22:53:30.853Z,20.30
2023-02-09T22:56:18.372Z,19.47
2023-02-09T22:59:05.827Z,20.67
2023-02-09T23:01:53.251Z,20.27
2023-02-09T23:04:40.717Z,20.53
2023-02-09T23:07:28.119Z,21.50
2023-02-09T23:10:16.709Z,20.60
2023-02-09T23:13:04.153Z,19.90
2023-02-09T23:15:51.582Z,21.10
2023-02-09T23:18:39.672Z,22.33
2023-02-09T23:21:29.840Z,19.80
2023-02-09T23:24:19.062Z,22.20
2023-02-09T23:27:06.482Z,20.30
2023-02-09T23:29:55.296Z,21.57
2023-02-09T23:32:42.934Z,22.93
2023-02-09T23:35:30.275Z,22.73
2023-02-09T23:38:18.506Z,22.00
2023-02-09T23:41:07.920Z,21.83
2023-02-09T23:43:55.444Z,19.87
2023-02-09T23:46:43.239Z,21.93
2023-02-09T23:49:30.703Z,21.93
2023-02-09T23:52:18.143Z,21.23
2023-02-09T23:55:05.740Z,20.93
2023-02-09T23:57:53.171Z,20.13
